sim
Sign-in with your pilot id or email,
or register
Callsign
Passwort

Schedule Details

Flight Number: RYR8182 (2)
Departure: London Stansted Airport (EGSS) at 14:10
Arrival: Fuerteventura Airport (GCFV) at 18:20
Route: Ryanair Passenger Schedule. Enter filed route here before submitting Pirep.

Weather Information
Getting current METAR information for EGSS 160320Z AUTO 21005KT 6000 NCD 04/02 Q1021
Getting current METAR information for GCFV 160330Z AUTO 28005KT 9999 NCD 14/11 Q1017

Schedule Frequency

Route Map